PWSweather.com
Personal Weather Stations
Station Observations
KFLSEBAS1
Sebastian Highlands, Sebastian, FL 32958-4362

Sebastian HighlandsSebastian, FL 32958-4362

Lat: 27.8, Lon: -80.48

Elevation: 23

Station Type: Davis Weather Monitor II

Latest ConditionsUpdated 4:50:16 AM EDT Sunday, Sep 22, 2019
Currently Today's Max Today's Min Today's Average
Temperature 78.7°F25.9°C 79.8°F26.6°C 78.6°F25.9°C 79.2°F26.2°C
Dew Point 69.7°F20.9°C 71.9°F22.2°C 68.3°F20.2°C 70.0°F21.1°C
Winds Calm Calm 9.0 mph -14.5 kmh - - 1.9 mph 3.1 kmh
Wind Gusts 12.0 mph19.3 kmh 16.0 mph25.7 kmh - -
Humidity 74% 77% 69% 73%
Pressure 30.08 in1018.6 mb 30.15 in1021.0 mb 30.08 in1018.6 mb -
Hour Temp Dew Point Humidity Winds Wind Gusts Pressure Precip Precip Rate Daily Precip Total
04:50 AM 78.7°F25.9°C 69.7°F20.9°C 74% Calm Calm 12.0 mph19.3 kmh 30.08 in1018.6 mb 0.00 in0.0 mm 0.00 in0.0 mm 0.00 in0.0 mm
04:45 AM 78.7°F25.9°C 69.7°F20.9°C 74% 2.0 mph NE3.2 kmh NE 12.0 mph19.3 kmh 30.08 in1018.6 mb 0.00 in0.0 mm 0.00 in0.0 mm 0.00 in0.0 mm
04:40 AM 78.7°F25.9°C 69.3°F20.7°C 73% 6.0 mph ENE9.7 kmh ENE 12.0 mph19.3 kmh 30.08 in1018.6 mb 0.00 in0.0 mm 0.00 in0.0 mm 0.00 in0.0 mm
04:35 AM 78.7°F25.9°C 69.3°F20.7°C 73% Calm Calm 11.0 mph17.7 kmh 30.08 in1018.6 mb 0.00 in0.0 mm 0.00 in0.0 mm 0.00 in0.0 mm
04:30 AM 78.7°F25.9°C 69.3°F20.7°C 73% 5.0 mph NE8.0 kmh NE 11.0 mph17.7 kmh 30.09 in1019.0 mb 0.00 in0.0 mm 0.00 in0.0 mm 0.00 in0.0 mm
04:25 AM 78.6°F25.9°C 69.6°F20.9°C 74% Calm Calm 9.0 mph14.5 kmh 30.09 in1019.0 mb 0.00 in0.0 mm 0.00 in0.0 mm 0.00 in0.0 mm
04:20 AM 78.7°F25.9°C 68.9°F20.5°C 72% Calm Calm 9.0 mph14.5 kmh 30.09 in1019.0 mb 0.00 in0.0 mm 0.00 in0.0 mm 0.00 in0.0 mm
04:15 AM 78.7°F25.9°C 68.9°F20.5°C 72% 4.0 mph ENE6.4 kmh ENE 9.0 mph14.5 kmh 30.09 in1019.0 mb 0.00 in0.0 mm 0.00 in0.0 mm 0.00 in0.0 mm
04:10 AM 78.6°F25.9°C 68.4°F20.2°C 71% Calm Calm 9.0 mph14.5 kmh 30.09 in1019.0 mb 0.00 in0.0 mm 0.00 in0.0 mm 0.00 in0.0 mm
04:05 AM 78.6°F25.9°C 69.2°F20.7°C 73% Calm Calm 9.0 mph14.5 kmh 30.09 in1019.0 mb 0.00 in0.0 mm 0.00 in0.0 mm 0.00 in0.0 mm
04:00 AM 78.7°F25.9°C 69.3°F20.7°C 73% Calm Calm -- 30.09 in1019.0 mb 0.00 in0.0 mm 0.00 in0.0 mm 0.00 in0.0 mm
03:55 AM 78.7°F25.9°C 69.3°F20.7°C 73% Calm Calm 16.0 mph25.7 kmh 30.09 in1019.0 mb 0.00 in0.0 mm 0.00 in0.0 mm 0.00 in0.0 mm
03:50 AM 78.7°F25.9°C 69.3°F20.7°C 73% 5.0 mph ESE8.0 kmh ESE 12.0 mph19.3 kmh 30.10 in1019.3 mb 0.00 in0.0 mm 0.00 in0.0 mm 0.00 in0.0 mm
03:45 AM 78.8°F26.0°C 69.4°F20.8°C 73% Calm Calm 12.0 mph19.3 kmh 30.10 in1019.3 mb 0.00 in0.0 mm 0.00 in0.0 mm 0.00 in0.0 mm
03:40 AM 78.7°F25.9°C 69.3°F20.7°C 73% Calm Calm 12.0 mph19.3 kmh 30.10 in1019.3 mb 0.00 in0.0 mm 0.00 in0.0 mm 0.00 in0.0 mm
03:35 AM 78.8°F26.0°C 69.4°F20.8°C 73% 1.0 mph E1.6 kmh E 12.0 mph19.3 kmh 30.10 in1019.3 mb 0.00 in0.0 mm 0.00 in0.0 mm 0.00 in0.0 mm
03:30 AM 78.8°F26.0°C 69.0°F20.6°C 72% 4.0 mph NE6.4 kmh NE 12.0 mph19.3 kmh 30.11 in1019.6 mb 0.00 in0.0 mm 0.00 in0.0 mm 0.00 in0.0 mm
03:25 AM 78.9°F26.1°C 69.1°F20.6°C 72% Calm Calm 12.0 mph19.3 kmh 30.10 in1019.3 mb 0.00 in0.0 mm 0.00 in0.0 mm 0.00 in0.0 mm
03:20 AM 78.9°F26.1°C 69.5°F20.8°C 73% Calm Calm 12.0 mph19.3 kmh 30.10 in1019.3 mb 0.00 in0.0 mm 0.00 in0.0 mm 0.00 in0.0 mm
03:15 AM 79.0°F26.1°C 69.6°F20.9°C 73% 1.0 mph NE1.6 kmh NE 12.0 mph19.3 kmh 30.10 in1019.3 mb 0.00 in0.0 mm 0.00 in0.0 mm 0.00 in0.0 mm
03:10 AM 79.1°F26.2°C 69.3°F20.7°C 72% Calm Calm 12.0 mph19.3 kmh 30.10 in1019.3 mb 0.00 in0.0 mm 0.00 in0.0 mm 0.00 in0.0 mm
03:05 AM 79.1°F26.2°C 68.9°F20.5°C 71% Calm Calm 11.0 mph17.7 kmh 30.10 in1019.3 mb 0.00 in0.0 mm 0.00 in0.0 mm 0.00 in0.0 mm
03:00 AM 79.2°F26.2°C 69.0°F20.6°C 71% 4.0 mph E6.4 kmh E 5.0 mph8.0 kmh 30.10 in1019.3 mb 0.00 in0.0 mm 0.00 in0.0 mm 0.00 in0.0 mm
02:55 AM 79.2°F26.2°C 69.0°F20.6°C 71% 2.0 mph E3.2 kmh E 15.0 mph24.1 kmh 30.11 in1019.6 mb 0.00 in0.0 mm 0.00 in0.0 mm 0.00 in0.0 mm
02:50 AM 79.3°F26.3°C 68.7°F20.4°C 70% 2.0 mph NE3.2 kmh NE 15.0 mph24.1 kmh 30.11 in1019.6 mb 0.00 in0.0 mm 0.00 in0.0 mm 0.00 in0.0 mm
02:45 AM 79.3°F26.3°C 68.3°F20.2°C 69% 5.0 mph E8.0 kmh E 15.0 mph24.1 kmh 30.11 in1019.6 mb 0.00 in0.0 mm 0.00 in0.0 mm 0.00 in0.0 mm
02:40 AM 79.3°F26.3°C 68.3°F20.2°C 69% Calm Calm 15.0 mph24.1 kmh 30.11 in1019.6 mb 0.00 in0.0 mm 0.00 in0.0 mm 0.00 in0.0 mm
02:35 AM 79.3°F26.3°C 68.3°F20.2°C 69% 3.0 mph ENE4.8 kmh ENE 15.0 mph24.1 kmh 30.11 in1019.6 mb 0.00 in0.0 mm 0.00 in0.0 mm 0.00 in0.0 mm
02:30 AM 79.2°F26.2°C 68.6°F20.3°C 70% 7.0 mph NE11.3 kmh NE 15.0 mph24.1 kmh 30.12 in1020.0 mb 0.00 in0.0 mm 0.00 in0.0 mm 0.00 in0.0 mm
02:25 AM 79.2°F26.2°C 69.0°F20.6°C 71% Calm Calm 15.0 mph24.1 kmh 30.12 in1020.0 mb 0.00 in0.0 mm 0.00 in0.0 mm 0.00 in0.0 mm
02:20 AM 79.1°F26.2°C 69.3°F20.7°C 72% 4.0 mph ENE6.4 kmh ENE 15.0 mph24.1 kmh 30.11 in1019.6 mb 0.00 in0.0 mm 0.00 in0.0 mm 0.00 in0.0 mm
02:15 AM 79.2°F26.2°C 70.2°F21.2°C 74% 2.0 mph NE3.2 kmh NE 12.0 mph19.3 kmh 30.12 in1020.0 mb 0.00 in0.0 mm 0.00 in0.0 mm 0.00 in0.0 mm
02:10 AM 79.3°F26.3°C 71.1°F21.7°C 76% Calm Calm 12.0 mph19.3 kmh 30.12 in1020.0 mb 0.00 in0.0 mm 0.00 in0.0 mm 0.00 in0.0 mm
02:05 AM 79.3°F26.3°C 70.7°F21.5°C 75% Calm Calm 12.0 mph19.3 kmh 30.12 in1020.0 mb 0.00 in0.0 mm 0.00 in0.0 mm 0.00 in0.0 mm
02:00 AM 79.3°F26.3°C 70.7°F21.5°C 75% Calm Calm 3.0 mph4.8 kmh 30.12 in1020.0 mb 0.00 in0.0 mm 0.00 in0.0 mm 0.00 in0.0 mm
01:55 AM 79.3°F26.3°C 71.1°F21.7°C 76% 2.0 mph ENE3.2 kmh ENE 12.0 mph19.3 kmh 30.12 in1020.0 mb 0.00 in0.0 mm 0.00 in0.0 mm 0.00 in0.0 mm
01:50 AM 79.3°F26.3°C 71.1°F21.7°C 76% Calm Calm 12.0 mph19.3 kmh 30.12 in1020.0 mb 0.00 in0.0 mm 0.00 in0.0 mm 0.00 in0.0 mm
01:45 AM 79.4°F26.3°C 71.2°F21.8°C 76% Calm Calm 12.0 mph19.3 kmh 30.12 in1020.0 mb 0.00 in0.0 mm 0.00 in0.0 mm 0.00 in0.0 mm
01:40 AM 79.3°F26.3°C 70.7°F21.5°C 75% Calm Calm 11.0 mph17.7 kmh 30.12 in1020.0 mb 0.00 in0.0 mm 0.00 in0.0 mm 0.00 in0.0 mm
01:35 AM 79.3°F26.3°C 70.3°F21.3°C 74% Calm Calm 10.0 mph16.1 kmh 30.12 in1020.0 mb 0.00 in0.0 mm 0.00 in0.0 mm 0.00 in0.0 mm
01:30 AM 79.3°F26.3°C 70.3°F21.3°C 74% 3.0 mph E4.8 kmh E 10.0 mph16.1 kmh 30.13 in1020.3 mb 0.00 in0.0 mm 0.00 in0.0 mm 0.00 in0.0 mm
01:25 AM 79.5°F26.4°C 71.3°F21.8°C 76% 3.0 mph E4.8 kmh E 10.0 mph16.1 kmh 30.12 in1020.0 mb 0.00 in0.0 mm 0.00 in0.0 mm 0.00 in0.0 mm
01:20 AM 79.5°F26.4°C 71.3°F21.8°C 76% Calm Calm 10.0 mph16.1 kmh 30.13 in1020.3 mb 0.00 in0.0 mm 0.00 in0.0 mm 0.00 in0.0 mm
01:15 AM 79.5°F26.4°C 70.9°F21.6°C 75% Calm Calm 10.0 mph16.1 kmh 30.12 in1020.0 mb 0.00 in0.0 mm 0.00 in0.0 mm 0.00 in0.0 mm
01:10 AM 79.5°F26.4°C 70.5°F21.4°C 74% Calm Calm 10.0 mph16.1 kmh 30.13 in1020.3 mb 0.00 in0.0 mm 0.00 in0.0 mm 0.00 in0.0 mm
01:05 AM 79.5°F26.4°C 70.5°F21.4°C 74% Calm Calm 10.0 mph16.1 kmh 30.13 in1020.3 mb 0.00 in0.0 mm 0.00 in0.0 mm 0.00 in0.0 mm
01:00 AM 79.4°F26.3°C 70.4°F21.3°C 74% 3.0 mph NE4.8 kmh NE 3.0 mph4.8 kmh 30.13 in1020.3 mb 0.00 in0.0 mm 0.00 in0.0 mm 0.00 in0.0 mm
12:55 AM 79.5°F26.4°C 70.9°F21.6°C 75% Calm Calm 14.0 mph22.5 kmh 30.13 in1020.3 mb 0.00 in0.0 mm 0.00 in0.0 mm 0.00 in0.0 mm
12:50 AM 79.6°F26.4°C 71.0°F21.7°C 75% Calm Calm 14.0 mph22.5 kmh 30.13 in1020.3 mb 0.00 in0.0 mm 0.00 in0.0 mm 0.00 in0.0 mm
12:45 AM 79.6°F26.4°C 71.0°F21.7°C 75% Calm Calm 14.0 mph22.5 kmh 30.14 in1020.7 mb 0.00 in0.0 mm 0.00 in0.0 mm 0.00 in0.0 mm
12:40 AM 79.7°F26.5°C 71.1°F21.7°C 75% 4.0 mph NE6.4 kmh NE 14.0 mph22.5 kmh 30.14 in1020.7 mb 0.00 in0.0 mm 0.00 in0.0 mm 0.00 in0.0 mm
12:35 AM 79.8°F26.6°C 70.8°F21.6°C 74% 9.0 mph ESE14.5 kmh ESE 14.0 mph22.5 kmh 30.14 in1020.7 mb 0.00 in0.0 mm 0.00 in0.0 mm 0.00 in0.0 mm
12:30 AM 79.8°F26.6°C 70.8°F21.6°C 74% Calm Calm 14.0 mph22.5 kmh 30.14 in1020.7 mb 0.00 in0.0 mm 0.00 in0.0 mm 0.00 in0.0 mm
12:25 AM 79.8°F26.6°C 70.8°F21.6°C 74% 9.0 mph E14.5 kmh E 14.0 mph22.5 kmh 30.14 in1020.7 mb 0.00 in0.0 mm 0.00 in0.0 mm 0.00 in0.0 mm
12:20 AM 79.8°F26.6°C 71.2°F21.8°C 75% 6.0 mph ENE9.7 kmh ENE 14.0 mph22.5 kmh 30.15 in1021.0 mb 0.00 in0.0 mm 0.00 in0.0 mm 0.00 in0.0 mm
12:15 AM 79.8°F26.6°C 71.2°F21.8°C 75% 2.0 mph ENE3.2 kmh ENE 14.0 mph22.5 kmh 30.14 in1020.7 mb 0.00 in0.0 mm 0.00 in0.0 mm 0.00 in0.0 mm
12:10 AM 79.7°F26.5°C 71.1°F21.7°C 75% Calm Calm 12.0 mph19.3 kmh 30.15 in1021.0 mb 0.00 in0.0 mm 0.00 in0.0 mm 0.00 in0.0 mm
12:05 AM 79.6°F26.4°C 71.4°F21.9°C 76% 8.0 mph ENE12.9 kmh ENE 12.0 mph19.3 kmh 30.15 in1021.0 mb 0.00 in0.0 mm 0.00 in0.0 mm 0.00 in0.0 mm
12:00 AM 79.7°F26.5°C 71.9°F22.2°C 77% 7.0 mph ENE11.3 kmh ENE 7.0 mph11.3 kmh 30.15 in1021.0 mb 0.00 in0.0 mm 0.00 in0.0 mm 0.00 in0.0 mm